Time;durP1;ratioP1;P1;durP2;ratioP2;P2;SDS_P1;SDS_P2;PMS_P1;PMS_P2;Temp;Humidity;BMP_temperature;BMP_pressure;BME280_temperature;BME280_humidity;BME280_pressure;Samples;Min_cycle;Max_cycle;Signal;HPM_P1;HPM_P2
2024/02/16 00:00:56;;;;;;;;;;;;;;;8.37;100.00;96343.56;5105316;28;19958;-68
2024/02/16 00:03:22;;;;;;;;;;;;;;;8.39;100.00;96344.16;5105940;28;19937;-68
2024/02/16 00:05:51;;;;;;;;;;;;;;;8.41;100.00;96342.16;5106707;28;19967;-69
2024/02/16 00:08:18;;;;;;;;;;;;;;;8.41;100.00;96337.72;5106613;28;19965;-75
2024/02/16 00:10:44;;;;;;;;;;;;;;;8.43;100.00;96338.31;5105841;28;19936;-76
2024/02/16 00:13:10;;;;;;;;;;;;;;;8.43;100.00;96340.16;5104965;28;19939;-77
2024/02/16 00:15:36;;;;;;;;;;;;;;;8.41;100.00;96326.47;5106154;28;20161;-76
2024/02/16 00:18:02;;;;;;;;;;;;;;;8.40;100.00;96322.22;5106213;28;19959;-76
2024/02/16 00:20:28;;;;;;;;;;;;;;;8.41;100.00;96322.06;5105232;28;19937;-76
2024/02/16 00:22:55;;;;;;;;;;;;;;;8.43;100.00;96327.09;5105586;28;20107;-76
2024/02/16 00:25:20;;;;;;;;;;;;;;;8.46;100.00;96321.44;5105539;28;19944;-74
2024/02/16 00:27:46;;;;;;;;;;;;;;;8.47;100.00;96317.81;5105107;28;19943;-76
2024/02/16 00:30:13;;;;;;;;;;;;;;;8.49;100.00;96323.63;5104665;28;19948;-76
2024/02/16 00:32:38;;;;;;;;;;;;;;;8.48;100.00;96330.69;5105359;28;19936;-76
2024/02/16 00:35:04;;;;;;;;;;;;;;;8.48;100.00;96338.53;5105764;28;19962;-76
2024/02/16 00:37:30;;;;;;;;;;;;;;;8.48;100.00;96330.69;5104562;28;20242;-76
2024/02/16 00:39:56;;;;;;;;;;;;;;;8.48;100.00;96332.47;5105260;28;19971;-76
2024/02/16 00:42:26;;;;;;;;;;;;;;;8.47;100.00;96334.28;5106060;28;19965;-75
2024/02/16 00:44:52;;;;;;;;;;;;;;;8.47;100.00;96339.53;5105446;28;19942;-76
2024/02/16 00:47:18;;;;;;;;;;;;;;;8.45;100.00;96335.53;5105685;28;20002;-72
2024/02/16 00:49:43;;;;;;;;;;;;;;;8.44;100.00;96339.94;5105022;28;20243;-72
2024/02/16 00:52:10;;;;;;;;;;;;;;;8.41;100.00;96331.72;5105044;28;19974;-72
2024/02/16 00:54:36;;;;;;;;;;;;;;;8.39;100.00;96338.91;5105119;28;20141;-72
2024/02/16 00:57:02;;;;;;;;;;;;;;;8.37;100.00;96341.72;5104159;28;19964;-72
2024/02/16 00:59:28;;;;;;;;;;;;;;;8.36;100.00;96321.84;5104212;28;19939;-72
2024/02/16 01:01:54;;;;;;;;;;;;;;;8.36;100.00;96328.88;5104901;28;19935;-67
2024/02/16 01:04:20;;;;;;;;;;;;;;;8.34;100.00;96332.50;5105579;28;19965;-77
2024/02/16 01:06:46;;;;;;;;;;;;;;;8.33;100.00;96333.50;5104782;28;19995;-76
2024/02/16 01:09:15;;;;;;;;;;;;;;;8.34;100.00;96322.06;5105195;28;20006;-76
2024/02/16 01:11:41;;;;;;;;;;;;;;;8.31;100.00;96332.91;5105235;28;19944;-76
2024/02/16 01:14:07;;;;;;;;;;;;;;;8.32;100.00;96336.34;5105135;28;20236;-76
2024/02/16 01:16:33;;;;;;;;;;;;;;;8.29;100.00;96336.72;5105067;28;19938;-76
2024/02/16 01:18:59;;;;;;;;;;;;;;;8.28;100.00;96335.16;5105126;28;19937;-76
2024/02/16 01:21:25;;;;;;;;;;;;;;;8.29;100.00;96328.91;5104568;28;19997;-69
2024/02/16 01:23:51;;;;;;;;;;;;;;;8.32;100.00;96341.56;5105019;28;20217;-75
2024/02/16 01:26:17;;;;;;;;;;;;;;;8.35;100.00;96328.06;5104477;28;20228;-75
2024/02/16 01:28:42;;;;;;;;;;;;;;;8.38;100.00;96332.06;5104924;28;19972;-75
2024/02/16 01:31:09;;;;;;;;;;;;;;;8.41;100.00;96321.25;5104375;28;19943;-75
2024/02/16 01:33:36;;;;;;;;;;;;;;;8.43;100.00;96325.25;5104802;28;19928;-75
2024/02/16 01:36:02;;;;;;;;;;;;;;;8.44;100.00;96318.22;5104338;28;19952;-76
2024/02/16 01:38:28;;;;;;;;;;;;;;;8.45;100.00;96318.03;5104303;28;20007;-77
2024/02/16 01:40:53;;;;;;;;;;;;;;;8.46;100.00;96319.63;5104254;28;20153;-69
2024/02/16 01:43:20;;;;;;;;;;;;;;;8.46;100.00;96322.25;5104781;28;20019;-69
2024/02/16 01:45:46;;;;;;;;;;;;;;;8.46;100.00;96317.03;5104695;28;19933;-69
2024/02/16 01:48:13;;;;;;;;;;;;;;;8.47;100.00;96302.13;5104189;28;20172;-69
2024/02/16 01:50:38;;;;;;;;;;;;;;;8.48;100.00;96322.84;5104695;28;19931;-69
2024/02/16 01:53:04;;;;;;;;;;;;;;;8.49;100.00;96315.81;5104133;28;20004;-69
2024/02/16 01:55:30;;;;;;;;;;;;;;;8.49;100.00;96308.75;5104531;28;19946;-76
2024/02/16 01:57:57;;;;;;;;;;;;;;;8.49;100.00;96311.38;5103932;28;20008;-68
2024/02/16 02:00:23;;;;;;;;;;;;;;;8.50;100.00;96304.31;5104079;28;19939;-76
2024/02/16 02:02:50;;;;;;;;;;;;;;;8.52;100.00;96305.75;5104867;28;19975;-75
2024/02/16 02:05:15;;;;;;;;;;;;;;;8.52;100.00;96302.31;5104000;28;19941;-76
2024/02/16 02:07:42;;;;;;;;;;;;;;;8.51;100.00;96305.94;5104468;28;19930;-76
2024/02/16 02:10:08;;;;;;;;;;;;;;;8.51;100.00;96306.75;5108117;28;19940;-76
2024/02/16 02:12:34;;;;;;;;;;;;;;;8.51;100.00;96285.03;5108097;28;19939;-76
2024/02/16 02:15:00;;;;;;;;;;;;;;;8.51;100.00;96305.94;5108058;28;19973;-76
2024/02/16 02:17:26;;;;;;;;;;;;;;;8.50;100.00;96293.88;5108026;28;20231;-76
2024/02/16 02:19:52;;;;;;;;;;;;;;;8.51;100.00;96301.50;5108751;28;20002;-76
2024/02/16 02:22:18;;;;;;;;;;;;;;;8.50;100.00;96305.16;5107943;28;19925;-76
2024/02/16 02:24:45;;;;;;;;;;;;;;;8.48;100.00;96299.31;5107803;28;19942;-76
2024/02/16 02:27:12;;;;;;;;;;;;;;;8.47;100.00;96294.31;5107864;28;20031;-76
2024/02/16 02:29:38;;;;;;;;;;;;;;;8.49;100.00;96285.25;5107792;28;19930;-76
2024/02/16 02:32:05;;;;;;;;;;;;;;;8.50;100.00;96276.41;5107697;28;19942;-76
2024/02/16 02:34:30;;;;;;;;;;;;;;;8.50;100.00;96278.19;5108163;28;19954;-73
2024/02/16 02:36:56;;;;;;;;;;;;;;;8.49;100.00;96277.41;5106769;28;20001;-75
2024/02/16 02:39:22;;;;;;;;;;;;;;;8.50;100.00;96263.34;5106798;28;19929;-75
2024/02/16 02:41:48;;;;;;;;;;;;;;;8.52;100.00;96265.72;5107555;28;19999;-75
2024/02/16 02:44:14;;;;;;;;;;;;;;;8.52;100.00;96263.94;5108300;28;20137;-75
2024/02/16 02:46:40;;;;;;;;;;;;;;;8.53;100.00;96270.75;5106905;28;19941;-75
2024/02/16 02:49:05;;;;;;;;;;;;;;;8.53;100.00;96265.50;5108206;28;20172;-75
2024/02/16 02:51:31;;;;;;;;;;;;;;;8.54;100.00;96268.91;5089423;28;19936;-69
2024/02/16 02:53:57;;;;;;;;;;;;;;;8.54;100.00;96261.88;5107832;28;19956;-74
2024/02/16 02:56:23;;;;;;;;;;;;;;;8.56;100.00;96248.59;5106585;28;19946;-75
2024/02/16 02:58:49;;;;;;;;;;;;;;;8.58;100.00;96253.63;5107075;28;19963;-75
2024/02/16 03:01:15;;;;;;;;;;;;;;;8.58;100.00;96246.59;5107247;28;20128;-74
2024/02/16 03:03:42;;;;;;;;;;;;;;;8.58;100.00;96237.94;5107697;28;19932;-75
2024/02/16 03:06:08;;;;;;;;;;;;;;;8.59;100.00;96234.31;5107086;28;20240;-75
2024/02/16 03:08:37;;;;;;;;;;;;;;;8.60;100.00;96235.94;5107265;28;19979;-75
2024/02/16 03:11:04;;;;;;;;;;;;;;;8.59;100.00;96235.13;5107034;28;20127;-74
2024/02/16 03:13:30;;;;;;;;;;;;;;;8.60;100.00;96241.94;5106259;28;19938;-75
2024/02/16 03:15:55;;;;;;;;;;;;;;;8.62;100.00;96249.59;5106857;28;20008;-74
2024/02/16 03:18:21;;;;;;;;;;;;;;;8.60;100.00;96244.56;5107385;28;19937;-75
2024/02/16 03:20:49;;;;;;;;;;;;;;;8.60;100.00;96254.22;5106193;28;19935;-75
2024/02/16 03:23:16;;;;;;;;;;;;;;;8.60;100.00;96247.19;5107493;28;19930;-75
2024/02/16 03:25:41;;;;;;;;;;;;;;;8.60;100.00;96249.00;5107224;28;19936;-75
2024/02/16 03:28:14;;;;;;;;;;;;;;;8.59;100.00;96247.38;5107193;28;19936;-72
2024/02/16 03:30:40;;;;;;;;;;;;;;;8.56;100.00;96253.03;5089435;28;19934;-76
2024/02/16 03:33:06;;;;;;;;;;;;;;;8.54;100.00;96256.66;5106596;28;19935;-76
2024/02/16 03:35:31;;;;;;;;;;;;;;;8.52;100.00;96258.69;5106427;28;20011;-76
2024/02/16 03:37:57;;;;;;;;;;;;;;;8.52;100.00;96265.72;5106505;28;20220;-76
2024/02/16 03:40:24;;;;;;;;;;;;;;;8.52;100.00;96269.16;5106916;28;19966;-77
2024/02/16 03:42:50;;;;;;;;;;;;;;;8.51;100.00;96256.28;5106436;28;20121;-76
2024/02/16 03:45:16;;;;;;;;;;;;;;;8.49;100.00;96260.91;5106399;28;20127;-76
2024/02/16 03:47:42;;;;;;;;;;;;;;;8.48;100.00;96261.91;5106351;28;19936;-67
2024/02/16 03:50:08;;;;;;;;;;;;;;;8.46;100.00;96259.53;5106280;28;19939;-76
2024/02/16 03:52:34;;;;;;;;;;;;;;;8.44;100.00;96261.56;5106435;28;20109;-76
2024/02/16 03:55:00;;;;;;;;;;;;;;;8.43;100.00;96267.78;5106125;28;19996;-76
2024/02/16 03:57:26;;;;;;;;;;;;;;;8.43;100.00;96273.00;5106228;28;20192;-77
2024/02/16 03:59:52;;;;;;;;;;;;;;;8.42;100.00;96268.78;5106606;28;20209;-76
2024/02/16 04:02:18;;;;;;;;;;;;;;;8.40;100.00;96262.94;5106046;28;19970;-76
2024/02/16 04:04:44;;;;;;;;;;;;;;;8.39;100.00;96271.78;5105943;28;20223;-68
2024/02/16 04:07:10;;;;;;;;;;;;;;;8.38;100.00;96271.97;5106751;28;19929;-69
2024/02/16 04:09:36;;;;;;;;;;;;;;;8.36;100.00;96271.38;5105821;28;20144;-76
2024/02/16 04:12:03;;;;;;;;;;;;;;;8.35;100.00;96273.19;5104766;28;20014;-76
2024/02/16 04:14:30;;;;;;;;;;;;;;;8.34;100.00;96277.63;5106200;28;19945;-76
2024/02/16 04:16:59;;;;;;;;;;;;;;;8.36;100.00;96290.50;5106263;28;19944;-76
2024/02/16 04:19:27;;;;;;;;;;;;;;;8.37;100.00;96279.03;5104870;28;19938;-76
2024/02/16 04:21:53;;;;;;;;;;;;;;;8.39;100.00;96289.28;5105675;28;19941;-76
2024/02/16 04:24:19;;;;;;;;;;;;;;;8.39;100.00;96279.63;5105591;28;19937;-75
2024/02/16 04:26:45;;;;;;;;;;;;;;;8.37;100.00;96284.25;5104854;28;20004;-76
2024/02/16 04:29:11;;;;;;;;;;;;;;;8.39;100.00;96291.88;5105022;28;20121;-76
2024/02/16 04:31:42;;;;;;;;;;;;;;;8.40;100.00;96285.63;5104765;28;19938;-76
2024/02/16 04:34:10;;;;;;;;;;;;;;;8.39;100.00;96287.47;5106109;28;19949;-76
2024/02/16 04:36:36;;;;;;;;;;;;;;;8.39;100.00;96287.47;5105330;28;19943;-76
2024/02/16 04:39:02;;;;;;;;;;;;;;;8.37;100.00;96286.88;5104940;28;19939;-76
2024/02/16 04:41:28;;;;;;;;;;;;;;;8.36;100.00;96294.91;5105311;28;19944;-83
2024/02/16 04:43:54;;;;;;;;;;;;;;;8.36;100.00;96297.50;5104781;28;19959;-68
2024/02/16 04:46:21;;;;;;;;;;;;;;;8.34;100.00;96295.94;5105209;28;20131;-68
2024/02/16 04:48:46;;;;;;;;;;;;;;;8.37;100.00;96293.91;5105629;28;19944;-68
2024/02/16 04:51:12;;;;;;;;;;;;;;;8.37;100.00;96294.69;5105105;28;19996;-68
2024/02/16 04:53:38;;;;;;;;;;;;;;;8.38;100.00;96295.50;5105544;28;19932;-68
2024/02/16 04:56:04;;;;;;;;;;;;;;;8.40;100.00;96306.53;5104927;28;19954;-68
2024/02/16 04:58:31;;;;;;;;;;;;;;;8.40;100.00;96301.31;5103882;28;19961;-68
2024/02/16 05:00:57;;;;;;;;;;;;;;;8.40;100.00;96309.16;5104969;28;19940;-74
2024/02/16 05:03:22;;;;;;;;;;;;;;;8.40;100.00;96309.97;5105394;28;19934;-68
2024/02/16 05:05:48;;;;;;;;;;;;;;;8.40;100.00;96306.53;5104827;28;19942;-68
2024/02/16 05:08:14;;;;;;;;;;;;;;;8.39;100.00;96300.53;5104736;28;19980;-68
2024/02/16 05:10:40;;;;;;;;;;;;;;;8.38;100.00;96312.00;5104773;28;20178;-69
2024/02/16 05:13:06;;;;;;;;;;;;;;;8.37;100.00;96304.34;5105506;28;20002;-68
2024/02/16 05:15:32;;;;;;;;;;;;;;;8.37;100.00;96313.00;5105349;28;20229;-68
2024/02/16 05:17:58;;;;;;;;;;;;;;;8.37;100.00;96309.59;5103950;28;19957;-74
2024/02/16 05:20:24;;;;;;;;;;;;;;;8.33;100.00;96309.19;5087086;28;20235;-76
2024/02/16 05:22:50;;;;;;;;;;;;;;;8.30;100.00;96320.84;5104579;28;19933;-67
2024/02/16 05:25:17;;;;;;;;;;;;;;;8.29;100.00;96313.22;5104722;28;20140;-67
2024/02/16 05:27:43;;;;;;;;;;;;;;;8.25;100.00;96310.25;5104079;28;19950;-68
2024/02/16 05:30:10;;;;;;;;;;;;;;;8.23;100.00;96317.47;5104643;28;19931;-67
2024/02/16 05:32:39;;;;;;;;;;;;;;;8.23;100.00;96314.88;5104389;28;20239;-68
2024/02/16 05:35:11;;;;;;;;;;;;;;;8.21;100.00;96314.28;5105040;28;20250;-67
2024/02/16 05:37:39;;;;;;;;;;;;;;;8.17;100.00;96313.06;5105152;28;20130;-67
2024/02/16 05:40:28;;;;;;;;;;;;;;;8.15;100.00;96320.31;5103881;28;19941;-76
2024/02/16 05:42:57;;;;;;;;;;;;;;;8.14;100.00;96326.53;5103144;28;20263;-75
2024/02/16 05:45:23;;;;;;;;;;;;;;;8.13;100.00;96317.09;5103604;28;19947;-75
2024/02/16 05:47:50;;;;;;;;;;;;;;;8.11;100.00;96319.91;5103533;28;19936;-76
2024/02/16 05:50:16;;;;;;;;;;;;;;;8.11;100.00;96329.56;5104200;28;20106;-76
2024/02/16 05:52:42;;;;;;;;;;;;;;;8.09;100.00;96327.16;5104166;28;19937;-76
2024/02/16 05:55:09;;;;;;;;;;;;;;;8.09;100.00;96327.16;5104633;28;19948;-75
2024/02/16 05:57:35;;;;;;;;;;;;;;;8.09;100.00;96327.16;5104388;28;19966;-67
2024/02/16 06:00:03;;;;;;;;;;;;;;;8.10;100.00;96325.34;5104027;28;19935;-81
2024/02/16 06:02:30;;;;;;;;;;;;;;;8.08;100.00;96322.13;5104818;28;19932;-81
2024/02/16 06:04:56;;;;;;;;;;;;;;;8.08;100.00;96329.97;5104601;28;19938;-81
2024/02/16 06:07:22;;;;;;;;;;;;;;;8.07;100.00;96323.13;5104846;28;20264;-81
2024/02/16 06:09:48;;;;;;;;;;;;;;;8.05;100.00;96315.50;5103822;28;19955;-81
2024/02/16 06:12:15;;;;;;;;;;;;;;;8.05;100.00;96330.38;5103988;28;19932;-81
2024/02/16 06:14:42;;;;;;;;;;;;;;;8.06;100.00;96342.41;5103153;28;19965;-72
2024/02/16 06:17:08;;;;;;;;;;;;;;;8.06;100.00;96337.19;5104456;28;19940;-68
2024/02/16 06:19:35;;;;;;;;;;;;;;;8.05;100.00;96340.81;5103214;28;19947;-69
2024/02/16 06:22:01;;;;;;;;;;;;;;;8.03;100.00;96346.25;5103879;28;20247;-68
2024/02/16 06:24:27;;;;;;;;;;;;;;;8.04;100.00;96354.88;5103820;28;19926;-68
2024/02/16 06:26:54;;;;;;;;;;;;;;;8.05;100.00;96356.50;5103827;28;19933;-68
2024/02/16 06:29:20;;;;;;;;;;;;;;;8.04;100.00;96358.31;5103793;28;20110;-68
2024/02/16 06:31:47;;;;;;;;;;;;;;;8.05;100.00;96364.31;5104334;28;19996;-75
2024/02/16 06:34:13;;;;;;;;;;;;;;;8.07;100.00;96363.13;5104401;28;19939;-75
2024/02/16 06:36:39;;;;;;;;;;;;;;;8.06;100.00;96360.69;5103708;28;20031;-69
2024/02/16 06:39:05;;;;;;;;;;;;;;;8.05;100.00;96359.09;5102748;28;20043;-69
2024/02/16 06:41:31;;;;;;;;;;;;;;;8.05;100.00;96367.72;5102747;28;20238;-69
2024/02/16 06:43:57;;;;;;;;;;;;;;;8.06;100.00;96374.59;5103752;28;20239;-69
2024/02/16 06:46:24;;;;;;;;;;;;;;;8.07;100.00;96370.94;5103685;28;19953;-69
2024/02/16 06:48:51;;;;;;;;;;;;;;;8.07;100.00;96372.75;5104231;28;20108;-69
2024/02/16 06:51:18;;;;;;;;;;;;;;;8.06;100.00;96374.59;5102601;28;19962;-75
2024/02/16 06:53:44;;;;;;;;;;;;;;;8.05;100.00;96372.16;5103623;28;19927;-72
2024/02/16 06:56:09;;;;;;;;;;;;;;;8.05;100.00;96380.00;5106831;28;20015;-72
2024/02/16 06:58:36;;;;;;;;;;;;;;;8.05;100.00;96382.63;5107079;28;20002;-72
2024/02/16 07:01:03;;;;;;;;;;;;;;;8.08;100.00;96390.03;5107493;28;19931;-72
2024/02/16 07:03:29;;;;;;;;;;;;;;;8.10;100.00;96386.19;5107438;28;19938;-72
2024/02/16 07:05:55;;;;;;;;;;;;;;;8.14;100.00;96379.56;5107698;28;19969;-72
2024/02/16 07:08:23;;;;;;;;;;;;;;;8.17;100.00;96391.44;5107323;28;19946;-72
2024/02/16 07:10:51;;;;;;;;;;;;;;;8.23;100.00;96392.41;5107053;28;19940;-68
2024/02/16 07:13:17;;;;;;;;;;;;;;;8.28;100.00;96401.25;5107545;28;20229;-67
2024/02/16 07:15:43;;;;;;;;;;;;;;;8.32;100.00;96394.63;5107668;28;19926;-67
2024/02/16 07:18:09;;;;;;;;;;;;;;;8.38;100.00;96397.41;5106890;28;19927;-68
2024/02/16 07:20:36;;;;;;;;;;;;;;;8.43;100.00;96395.03;5107382;28;19930;-68
2024/02/16 07:23:02;;;;;;;;;;;;;;;8.52;100.00;96393.78;5106805;28;20259;-67
2024/02/16 07:25:28;;;;;;;;;;;;;;;8.74;100.00;96389.88;5107540;28;19930;-68
2024/02/16 07:27:54;;;;;;;;;;;;;;;9.00;100.00;96388.16;5106141;28;19938;-82
2024/02/16 07:30:20;;;;;;;;;;;;;;;9.16;100.00;96392.13;5106287;28;19940;-72
2024/02/16 07:32:50;;;;;;;;;;;;;;;9.43;100.00;96390.16;5106572;28;19938;-72
2024/02/16 07:35:16;;;;;;;;;;;;;;;9.78;100.00;96371.34;5105957;28;19963;-72
2024/02/16 07:37:43;;;;;;;;;;;;;;;10.12;100.00;96345.63;5105762;28;19948;-72
2024/02/16 07:40:09;;;;;;;;;;;;;;;10.41;100.00;96354.63;5106460;28;19942;-72
2024/02/16 07:42:42;;;;;;;;;;;;;;;10.65;100.00;96342.47;5106714;28;19937;-72
2024/02/16 07:45:09;;;;;;;;;;;;;;;10.77;100.00;96339.88;5107294;28;19927;-74
2024/02/16 07:47:35;;;;;;;;;;;;;;;10.82;100.00;96347.91;5105715;28;20126;-72
2024/02/16 07:50:01;;;;;;;;;;;;;;;10.84;100.00;96309.13;5105208;28;20008;-76
2024/02/16 07:52:26;;;;;;;;;;;;;;;10.83;100.00;96335.59;5105161;28;20014;-77
2024/02/16 07:54:52;;;;;;;;;;;;;;;10.97;100.00;96340.44;5106921;28;20103;-76
2024/02/16 07:57:18;;;;;;;;;;;;;;;11.15;100.00;96292.34;5106624;28;19964;-76
2024/02/16 07:59:44;;;;;;;;;;;;;;;11.28;100.00;96322.84;5105554;28;19939;-76
2024/02/16 08:02:15;;;;;;;;;;;;;;;11.44;100.00;96300.38;5106662;28;19941;-76
2024/02/16 08:04:47;;;;;;;;;;;;;;;11.57;100.00;96315.94;5104699;28;19945;-68
2024/02/16 08:07:13;;;;;;;;;;;;;;;11.72;100.00;96318.13;5106675;28;19935;-67
2024/02/16 08:09:39;;;;;;;;;;;;;;;11.90;96.91;96277.78;5105842;28;20081;-67
2024/02/16 08:12:06;;;;;;;;;;;;;;;12.03;100.00;96302.25;5105882;28;20015;-67
2024/02/16 08:14:35;;;;;;;;;;;;;;;12.13;98.94;96290.09;5105428;28;19940;-68
2024/02/16 08:17:01;;;;;;;;;;;;;;;12.29;98.95;96288.59;5106200;28;19955;-67
2024/02/16 08:19:33;;;;;;;;;;;;;;;12.58;99.95;96293.91;5105038;28;20009;-68
2024/02/16 08:22:03;;;;;;;;;;;;;;;12.85;99.88;96304.69;5106526;28;19934;-74
2024/02/16 08:24:29;;;;;;;;;;;;;;;13.14;93.46;96259.88;5104718;28;19940;-82
2024/02/16 08:26:56;;;;;;;;;;;;;;;13.34;93.48;96270.78;5104870;28;19942;-69
2024/02/16 08:29:22;;;;;;;;;;;;;;;13.58;92.07;96260.06;5106180;28;20127;-69
2024/02/16 08:31:49;;;;;;;;;;;;;;;13.77;90.64;96263.25;5105483;28;19937;-69
2024/02/16 08:34:15;;;;;;;;;;;;;;;13.94;90.74;96264.03;5106014;28;20243;-70
2024/02/16 08:36:47;;;;;;;;;;;;;;;14.04;88.79;96252.78;5105354;28;19950;-69
2024/02/16 08:39:13;;;;;;;;;;;;;;;14.06;88.94;96265.75;5106185;28;19960;-69
2024/02/16 08:41:39;;;;;;;;;;;;;;;14.12;88.55;96255.00;5105898;28;20217;-70
2024/02/16 08:44:08;;;;;;;;;;;;;;;14.16;87.92;96260.59;5105319;28;19952;-75
2024/02/16 08:46:33;;;;;;;;;;;;;;;14.30;89.96;96277.66;5104846;28;19934;-75
2024/02/16 08:48:59;;;;;;;;;;;;;;;14.26;79.45;96215.06;5105213;28;19945;-75
2024/02/16 08:51:25;;;;;;;;;;;;;;;14.02;87.23;96258.31;5043075;28;19945;-74
2024/02/16 08:53:51;;;;;;;;;;;;;;;13.94;86.65;96261.38;5042862;28;19977;-75
2024/02/16 08:56:17;;;;;;;;;;;;;;;13.90;87.91;96280.53;5043192;28;19960;-74
2024/02/16 08:58:43;;;;;;;;;;;;;;;13.87;88.73;96295.00;5043007;28;20011;-73
2024/02/16 09:01:09;;;;;;;;;;;;;;;13.84;88.91;96284.97;5043160;28;20141;-76
2024/02/16 09:03:38;;;;;;;;;;;;;;;13.80;86.48;96281.22;5042929;28;20324;-76
2024/02/16 09:06:04;;;;;;;;;;;;;;;13.80;87.51;96303.09;5042105;28;20116;-77
2024/02/16 09:08:38;;;;;;;;;;;;;;;13.90;93.53;96328.81;5043056;28;19980;-77
2024/02/16 09:11:05;;;;;;;;;;;;;;;14.15;90.98;96307.28;5042179;28;20006;-77
2024/02/16 09:13:33;;;;;;;;;;;;;;;14.32;87.54;96301.13;5042317;28;20129;-77
2024/02/16 09:15:59;;;;;;;;;;;;;;;14.44;92.44;96315.00;5042611;28;19951;-76
2024/02/16 09:18:25;;;;;;;;;;;;;;;14.55;89.07;96292.16;5041675;28;19944;-74
2024/02/16 09:20:51;;;;;;;;;;;;;;;14.61;87.71;96294.69;5042673;28;19940;-77
2024/02/16 09:23:17;;;;;;;;;;;;;;;14.54;85.15;96280.81;5094517;28;20008;-76
2024/02/16 09:25:45;;;;;;;;;;;;;;;14.36;85.66;96281.97;5105046;28;19987;-76
2024/02/16 09:28:12;;;;;;;;;;;;;;;14.27;90.42;96312.41;5104539;28;20224;-77
2024/02/16 09:30:38;;;;;;;;;;;;;;;14.35;89.50;96305.94;5104890;28;19936;-77
2024/02/16 09:33:04;;;;;;;;;;;;;;;14.46;87.83;96306.84;5104436;28;19935;-76
2024/02/16 09:35:30;;;;;;;;;;;;;;;14.51;90.28;96323.56;5104307;28;20237;-77
2024/02/16 09:37:56;;;;;;;;;;;;;;;14.58;92.32;96345.28;5105223;28;19941;-77
2024/02/16 09:40:22;;;;;;;;;;;;;;;14.47;92.31;96345.38;5104847;28;19941;-68
2024/02/16 09:42:51;;;;;;;;;;;;;;;14.37;92.14;96341.56;5086384;28;19942;-68
2024/02/16 09:45:17;;;;;;;;;;;;;;;14.30;94.21;96359.44;5104760;28;19926;-68
2024/02/16 09:47:44;;;;;;;;;;;;;;;14.19;87.25;96318.13;5103769;28;19937;-68
2024/02/16 09:50:10;;;;;;;;;;;;;;;14.04;92.18;96355.63;5103349;28;20227;-68
2024/02/16 09:52:36;;;;;;;;;;;;;;;13.92;92.65;96358.38;5104097;28;19930;-69
2024/02/16 09:55:02;;;;;;;;;;;;;;;13.81;93.62;96362.66;5104834;28;19944;-69
2024/02/16 09:57:28;;;;;;;;;;;;;;;13.74;94.23;96374.41;5103941;28;20254;-69
2024/02/16 09:59:54;;;;;;;;;;;;;;;13.68;90.21;96352.44;5104856;28;20015;-68
2024/02/16 10:02:20;;;;;;;;;;;;;;;13.70;96.56;96394.38;5103962;28;19929;-68
2024/02/16 10:04:46;;;;;;;;;;;;;;;13.69;95.01;96387.50;5103920;28;20236;-68
2024/02/16 10:07:13;;;;;;;;;;;;;;;13.67;94.31;96376.41;5103977;28;20018;-68
2024/02/16 10:09:39;;;;;;;;;;;;;;;13.60;95.13;96387.88;5102859;28;19950;-69
2024/02/16 10:12:06;;;;;;;;;;;;;;;13.57;95.91;96395.50;5104235;28;19936;-68
2024/02/16 10:14:32;;;;;;;;;;;;;;;13.50;97.16;96405.38;5104166;28;19926;-75
2024/02/16 10:17:06;;;;;;;;;;;;;;;13.47;96.45;96405.84;5102972;28;19956;-73
2024/02/16 10:19:39;;;;;;;;;;;;;;;13.45;97.72;96419.25;5103918;28;19930;-73
2024/02/16 10:22:08;;;;;;;;;;;;;;;13.43;96.43;96410.78;5104747;28;19982;-72
2024/02/16 10:24:34;;;;;;;;;;;;;;;13.42;96.28;96403.94;5103880;28;19938;-72
2024/02/16 10:27:00;;;;;;;;;;;;;;;13.38;96.60;96406.22;5103857;28;19936;-72
2024/02/16 10:29:27;;;;;;;;;;;;;;;13.40;98.03;96419.19;5105305;28;19948;-72
2024/02/16 10:31:53;;;;;;;;;;;;;;;13.43;96.42;96420.53;5107804;28;20126;-82
2024/02/16 10:34:19;;;;;;;;;;;;;;;13.48;97.28;96428.50;5089846;28;19938;-75
2024/02/16 10:36:46;;;;;;;;;;;;;;;13.54;97.54;96433.66;5106875;28;19954;-75
2024/02/16 10:39:13;;;;;;;;;;;;;;;13.60;97.41;96430.06;5107072;28;19933;-75
2024/02/16 10:41:43;;;;;;;;;;;;;;;13.71;96.08;96417.06;5106835;28;19939;-75
2024/02/16 10:44:10;;;;;;;;;;;;;;;13.78;97.06;96422.97;5106640;28;19941;-75
2024/02/16 10:46:36;;;;;;;;;;;;;;;13.90;97.84;96420.25;5107534;28;19937;-75
2024/02/16 10:49:05;;;;;;;;;;;;;;;14.05;95.86;96419.69;5106787;28;19942;-75
2024/02/16 10:51:34;;;;;;;;;;;;;;;14.10;96.29;96411.88;5107433;28;19938;-80
2024/02/16 10:54:01;;;;;;;;;;;;;;;14.25;98.95;96425.28;5108203;28;19940;-68
2024/02/16 10:56:28;;;;;;;;;;;;;;;14.48;96.92;96415.59;5106801;28;19955;-68
2024/02/16 10:58:54;;;;;;;;;;;;;;;14.73;95.59;96409.88;5107156;28;19956;-68
2024/02/16 11:01:20;;;;;;;;;;;;;;;14.86;91.56;96383.09;5107184;28;20013;-68
2024/02/16 11:03:46;;;;;;;;;;;;;;;15.05;90.42;96373.00;5106071;28;19937;-68
2024/02/16 11:06:18;;;;;;;;;;;;;;;15.40;93.07;96388.44;5107666;28;19946;-68
2024/02/16 11:08:48;;;;;;;;;;;;;;;15.96;92.75;96371.50;5107036;28;20144;-74
2024/02/16 11:11:22;;;;;;;;;;;;;;;16.42;82.85;96324.13;5107853;28;19939;-78
2024/02/16 11:13:48;;;;;;;;;;;;;;;16.68;85.31;96329.53;5106340;28;19944;-78
2024/02/16 11:16:14;;;;;;;;;;;;;;;16.96;87.09;96328.31;5106908;28;20249;-78
2024/02/16 11:18:43;;;;;;;;;;;;;;;17.24;85.44;96327.06;5106946;28;19930;-78
2024/02/16 11:21:11;;;;;;;;;;;;;;;17.23;80.26;96306.91;5107385;28;19934;-78
2024/02/16 11:23:37;;;;;;;;;;;;;;;17.15;79.65;96400.16;5107353;28;20099;-78
2024/02/16 11:26:04;;;;;;;;;;;;;;;17.10;80.75;96431.97;5105838;28;19933;-78
2024/02/16 11:28:33;;;;;;;;;;;;;;;17.24;80.43;96433.06;5107308;28;19935;-75
2024/02/16 11:31:00;;;;;;;;;;;;;;;17.34;81.95;96448.19;5106658;28;19941;-75
2024/02/16 11:33:27;;;;;;;;;;;;;;;17.56;79.44;96434.75;5106262;28;19940;-75
2024/02/16 11:35:57;;;;;;;;;;;;;;;17.72;79.53;96444.28;5106054;28;19985;-75
2024/02/16 11:38:23;;;;;;;;;;;;;;;17.91;72.92;96441.97;5106774;28;20112;-75
2024/02/16 11:41:07;;;;;;;;;;;;;;;18.09;78.52;96458.44;5105937;28;19934;-75
2024/02/16 11:43:33;;;;;;;;;;;;;;;18.40;78.26;96467.19;5106678;28;19938;-75
2024/02/16 11:46:10;;;;;;;;;;;;;;;18.61;71.34;96455.44;5106591;28;19946;-72
2024/02/16 11:48:36;;;;;;;;;;;;;;;18.77;74.72;96460.72;5107052;28;19938;-77
2024/02/16 11:51:02;;;;;;;;;;;;;;;18.97;77.74;96466.00;5106343;28;20221;-77
2024/02/16 11:53:29;;;;;;;;;;;;;;;19.07;73.08;96459.88;5106268;28;19935;-77
2024/02/16 11:55:55;;;;;;;;;;;;;;;18.95;74.46;96454.06;5105470;28;20255;-78
2024/02/16 11:58:22;;;;;;;;;;;;;;;18.63;72.50;96458.63;5105996;28;19982;-78
2024/02/16 12:00:48;;;;;;;;;;;;;;;18.41;74.53;96474.06;5106889;28;19942;-77
2024/02/16 12:03:21;;;;;;;;;;;;;;;18.21;75.97;96469.56;5106125;28;20272;-68
2024/02/16 12:05:54;;;;;;;;;;;;;;;18.06;77.04;96481.00;5105066;28;20121;-67
2024/02/16 12:08:21;;;;;;;;;;;;;;;17.96;76.04;96475.66;5106259;28;20141;-68
2024/02/16 12:10:48;;;;;;;;;;;;;;;17.80;75.00;96482.78;5105887;28;19938;-67
2024/02/16 12:13:18;;;;;;;;;;;;;;;17.56;77.06;96488.56;5105821;28;20128;-68
2024/02/16 12:15:45;;;;;;;;;;;;;;;17.45;78.62;96486.94;5105675;28;20122;-68
2024/02/16 12:18:10;;;;;;;;;;;;;;;17.36;79.50;96483.97;5105707;28;19937;-67
2024/02/16 12:20:36;;;;;;;;;;;;;;;17.28;78.80;96481.81;5106548;28;19968;-68
2024/02/16 12:23:12;;;;;;;;;;;;;;;17.21;79.41;96492.66;5106172;28;19930;-77
2024/02/16 12:25:38;;;;;;;;;;;;;;;17.08;77.72;96479.91;5106088;28;20127;-68
2024/02/16 12:28:05;;;;;;;;;;;;;;;17.00;80.43;96491.00;5105537;28;19970;-68
2024/02/16 12:30:31;;;;;;;;;;;;;;;16.93;81.66;96501.81;5105947;28;20113;-68
2024/02/16 12:32:56;;;;;;;;;;;;;;;16.84;80.54;96501.50;5105492;28;19967;-68
2024/02/16 12:35:22;;;;;;;;;;;;;;;16.80;83.05;96495.13;5105679;28;19972;-67
2024/02/16 12:37:48;;;;;;;;;;;;;;;16.81;83.02;96501.22;5105323;28;20200;-68
2024/02/16 12:40:14;;;;;;;;;;;;;;;16.84;81.55;96498.88;5105361;28;19939;-78
2024/02/16 12:42:40;;;;;;;;;;;;;;;16.82;81.69;96495.69;5105276;28;19934;-70